Time;durP1;ratioP1;P1;durP2;ratioP2;P2;SDS_P1;SDS_P2;PMS_P1;PMS_P2;Temp;Humidity;BMP_temperature;BMP_pressure;BME280_temperature;BME280_humidity;BME280_pressure;Samples;Min_cycle;Max_cycle;Signal;HPM_P1;HPM_P2
2021/11/14 00:02:09;;;;;;;;;17.00;14.00;;;;;;;;4912561;29;45382;-86
2021/11/14 00:04:34;;;;;;;;;12.00;11.00;;;;;;;;4896825;29;45456;-85
2021/11/14 00:07:00;;;;;;;;;12.67;12.67;;;;;;;;4897250;29;45375;-85
2021/11/14 00:09:28;;;;;;;;;8.00;8.00;;;;;;;;4896932;28;47164;-86
2021/11/14 00:11:53;;;;;;;;;12.67;12.00;;;;;;;;4913234;29;45416;-84
2021/11/14 00:14:25;;;;;;;;;8.00;6.00;;;;;;;;4899142;29;45372;-85
2021/11/14 00:16:50;;;;;;;;;6.00;6.00;;;;;;;;4916422;28;45445;-85
2021/11/14 00:19:16;;;;;;;;;11.00;11.00;;;;;;;;4897142;29;47032;-85
2021/11/14 00:21:41;;;;;;;;;10.67;10.67;;;;;;;;4914064;28;45299;-84
2021/11/14 00:24:09;;;;;;;;;10.67;10.00;;;;;;;;4914965;28;44779;-85
2021/11/14 00:26:34;;;;;;;;;13.33;11.67;;;;;;;;4898587;28;45369;-84
2021/11/14 00:28:59;;;;;;;;;14.33;11.33;;;;;;;;4897775;28;47608;-84
2021/11/14 00:31:25;;;;;;;;;11.00;11.00;;;;;;;;4897761;29;45385;-85
2021/11/14 00:33:50;;;;;;;;;10.67;10.67;;;;;;;;4898507;28;44862;-84
2021/11/14 00:36:18;;;;;;;;;8.00;7.67;;;;;;;;4897608;29;44815;-84
2021/11/14 00:38:43;;;;;;;;;11.67;10.67;;;;;;;;4915217;28;44992;-84
2021/11/14 00:41:09;;;;;;;;;11.00;9.67;;;;;;;;4896037;28;44853;-84
2021/11/14 00:43:35;;;;;;;;;13.33;12.00;;;;;;;;4897718;29;44746;-84
2021/11/14 00:46:01;;;;;;;;;14.67;11.67;;;;;;;;4913583;28;45433;-85
2021/11/14 00:48:27;;;;;;;;;10.33;9.00;;;;;;;;4913615;29;44990;-83
2021/11/14 00:50:52;;;;;;;;;14.33;12.00;;;;;;;;4896207;28;44742;-85
2021/11/14 00:53:20;;;;;;;;;12.00;10.00;;;;;;;;4912624;29;45632;-84
2021/11/14 00:55:46;;;;;;;;;11.00;10.33;;;;;;;;4930448;28;45318;-85
2021/11/14 00:58:12;;;;;;;;;9.00;9.00;;;;;;;;4933051;28;45404;-84
2021/11/14 01:00:37;;;;;;;;;11.33;9.00;;;;;;;;4901046;28;45370;-84
2021/11/14 01:03:03;;;;;;;;;10.00;10.00;;;;;;;;4915465;28;45777;-83
2021/11/14 01:05:29;;;;;;;;;10.33;9.33;;;;;;;;4914204;28;45297;-85
2021/11/14 01:07:55;;;;;;;;;10.00;10.00;;;;;;;;4913679;28;48299;-86
2021/11/14 01:10:22;;;;;;;;;9.00;5.67;;;;;;;;4930740;28;45442;-86
2021/11/14 01:15:52;;;;;;;;;11.00;11.00;;;;;;;;4933876;28;45386;-84
2021/11/14 01:18:18;;;;;;;;;11.00;11.00;;;;;;;;4932622;28;45324;-84
2021/11/14 01:20:51;;;;;;;;;12.33;9.00;;;;;;;;4933281;28;45434;-84
2021/11/14 01:23:24;;;;;;;;;12.33;12.33;;;;;;;;4914137;28;45405;-83
2021/11/14 01:25:50;;;;;;;;;10.00;10.00;;;;;;;;4915320;28;45413;-84
2021/11/14 01:28:17;;;;;;;;;8.33;8.00;;;;;;;;4932279;28;45881;-85
2021/11/14 01:30:45;;;;;;;;;11.67;10.33;;;;;;;;4914379;28;45563;-84
2021/11/14 01:33:10;;;;;;;;;9.00;9.00;;;;;;;;4915923;28;44812;-85
2021/11/14 01:35:36;;;;;;;;;9.33;9.00;;;;;;;;4933516;28;45273;-84
2021/11/14 01:38:02;;;;;;;;;8.00;5.33;;;;;;;;4915288;28;46683;-84
2021/11/14 01:40:29;;;;;;;;;8.00;6.00;;;;;;;;4913757;28;45725;-85
2021/11/14 01:42:55;;;;;;;;;9.33;9.00;;;;;;;;4914675;28;45374;-85
2021/11/14 01:45:21;;;;;;;;;8.00;8.00;;;;;;;;4913562;28;45382;-84
2021/11/14 01:47:47;;;;;;;;;9.00;8.67;;;;;;;;4913332;28;46901;-85
2021/11/14 01:50:14;;;;;;;;;9.00;9.00;;;;;;;;4932919;28;45338;-85
2021/11/14 01:52:40;;;;;;;;;10.00;10.00;;;;;;;;4914791;28;45470;-85
2021/11/14 01:55:06;;;;;;;;;9.00;8.33;;;;;;;;4930443;28;45453;-85
2021/11/14 01:57:31;;;;;;;;;10.00;9.00;;;;;;;;4913301;28;46881;-84
2021/11/14 01:59:57;;;;;;;;;11.67;9.00;;;;;;;;4913984;28;45377;-85
2021/11/14 02:02:22;;;;;;;;;10.00;8.33;;;;;;;;4913963;28;45461;-84
2021/11/14 02:04:47;;;;;;;;;7.00;5.67;;;;;;;;4912737;28;44796;-84
2021/11/14 02:07:15;;;;;;;;;6.33;5.00;;;;;;;;4913945;28;47159;-85
2021/11/14 02:09:41;;;;;;;;;10.00;10.00;;;;;;;;4929052;28;45341;-85
2021/11/14 02:12:07;;;;;;;;;8.00;7.33;;;;;;;;4929781;28;44765;-85
2021/11/14 02:14:32;;;;;;;;;11.00;9.67;;;;;;;;4913842;28;45361;-85
2021/11/14 02:16:58;;;;;;;;;8.67;8.67;;;;;;;;4912681;28;47089;-85
2021/11/14 02:19:23;;;;;;;;;10.33;8.67;;;;;;;;4914172;28;45416;-85
2021/11/14 02:21:49;;;;;;;;;10.33;9.33;;;;;;;;4913840;28;45456;-85
2021/11/14 02:24:14;;;;;;;;;5.00;5.00;;;;;;;;4913839;28;44959;-84
2021/11/14 02:26:39;;;;;;;;;8.67;5.67;;;;;;;;4912356;28;47218;-84
2021/11/14 02:29:05;;;;;;;;;5.00;5.00;;;;;;;;4913323;28;45483;-85
2021/11/14 02:31:31;;;;;;;;;6.67;6.67;;;;;;;;4912284;28;45488;-85
2021/11/14 02:33:57;;;;;;;;;6.33;6.33;;;;;;;;4930001;28;45589;-85
2021/11/14 02:36:22;;;;;;;;;5.67;5.33;;;;;;;;4910570;28;46854;-86
2021/11/14 02:38:48;;;;;;;;;6.00;6.00;;;;;;;;4910586;28;45402;-85
2021/11/14 02:41:13;;;;;;;;;7.00;5.00;;;;;;;;4929374;28;44730;-85
2021/11/14 02:46:41;;;;;;;;;9.00;9.00;;;;;;;;4927741;28;45434;-85
2021/11/14 02:49:07;;;;;;;;;8.00;5.00;;;;;;;;4907160;29;45417;-86
2021/11/14 02:51:33;;;;;;;;;10.00;9.33;;;;;;;;4911218;29;45441;-86
2021/11/14 02:53:59;;;;;;;;;7.67;6.67;;;;;;;;4895555;28;45288;-85
2021/11/14 02:56:26;;;;;;;;;7.33;7.33;;;;;;;;4894174;29;47349;-85
2021/11/14 02:58:51;;;;;;;;;9.33;8.00;;;;;;;;4895892;29;45357;-85
2021/11/14 03:01:22;;;;;;;;;10.00;8.00;;;;;;;;4910762;28;45082;-85
2021/11/14 03:03:48;;;;;;;;;11.00;6.33;;;;;;;;4910726;28;45418;-86
2021/11/14 03:06:14;;;;;;;;;6.33;5.67;;;;;;;;4894474;28;46990;-86
2021/11/14 03:08:39;;;;;;;;;7.67;7.00;;;;;;;;4910108;29;45381;-85
2021/11/14 03:11:05;;;;;;;;;8.67;8.00;;;;;;;;4892418;29;45336;-85
2021/11/14 03:13:30;;;;;;;;;11.67;8.67;;;;;;;;4893399;29;45339;-85
2021/11/14 03:15:57;;;;;;;;;8.67;6.33;;;;;;;;4909789;28;45790;-85
2021/11/14 03:18:22;;;;;;;;;8.33;7.33;;;;;;;;4909963;28;44973;-84
2021/11/14 03:20:50;;;;;;;;;8.00;8.00;;;;;;;;4895706;28;45483;-85
2021/11/14 03:23:16;;;;;;;;;8.33;8.33;;;;;;;;4911630;28;45396;-85
2021/11/14 03:25:41;;;;;;;;;9.00;9.00;;;;;;;;4912425;29;45823;-84
2021/11/14 03:28:07;;;;;;;;;7.33;6.33;;;;;;;;4895407;29;45439;-84
2021/11/14 03:30:33;;;;;;;;;10.33;8.67;;;;;;;;4893163;29;45518;-84
2021/11/14 03:33:02;;;;;;;;;6.33;6.33;;;;;;;;4909166;29;45371;-85
2021/11/14 03:35:36;;;;;;;;;8.00;7.33;;;;;;;;4892344;29;46683;-85
2021/11/14 03:38:01;;;;;;;;;6.67;5.00;;;;;;;;4892149;28;45412;-85
2021/11/14 03:40:28;;;;;;;;;8.33;8.33;;;;;;;;4891903;28;45446;-85
2021/11/14 03:42:53;;;;;;;;;10.33;8.67;;;;;;;;4909680;29;45427;-84
2021/11/14 03:45:18;;;;;;;;;9.33;8.00;;;;;;;;4908932;29;45622;-84
2021/11/14 03:47:44;;;;;;;;;8.67;6.67;;;;;;;;4891620;28;45482;-85
2021/11/14 03:50:10;;;;;;;;;5.67;5.67;;;;;;;;4891860;29;45408;-85
2021/11/14 03:52:37;;;;;;;;;9.33;8.33;;;;;;;;4891686;29;45381;-84
2021/11/14 03:55:03;;;;;;;;;8.00;8.00;;;;;;;;4909612;28;45157;-84
2021/11/14 03:57:28;;;;;;;;;10.00;10.00;;;;;;;;4892680;28;45367;-85
2021/11/14 03:59:53;;;;;;;;;9.33;8.67;;;;;;;;4894115;29;45428;-85
2021/11/14 04:02:18;;;;;;;;;12.00;11.00;;;;;;;;4893103;28;45553;-85
2021/11/14 04:04:44;;;;;;;;;8.33;8.00;;;;;;;;4908617;29;45338;-84
2021/11/14 04:07:09;;;;;;;;;11.67;10.00;;;;;;;;4891071;29;45407;-85
2021/11/14 04:09:35;;;;;;;;;10.00;10.00;;;;;;;;4891935;29;45431;-85
2021/11/14 04:12:03;;;;;;;;;11.00;10.00;;;;;;;;4909688;28;45461;-85
2021/11/14 04:14:28;;;;;;;;;10.33;9.33;;;;;;;;4891739;29;47081;-85
2021/11/14 04:16:53;;;;;;;;;10.67;10.67;;;;;;;;4890374;28;45391;-85
2021/11/14 04:19:18;;;;;;;;;9.67;9.67;;;;;;;;4907913;28;45495;-85
2021/11/14 04:21:44;;;;;;;;;9.33;9.00;;;;;;;;4908643;28;45906;-86
2021/11/14 04:24:09;;;;;;;;;10.00;9.67;;;;;;;;4908010;29;45802;-85
2021/11/14 04:26:34;;;;;;;;;8.33;6.67;;;;;;;;4892367;28;45389;-85
2021/11/14 04:29:00;;;;;;;;;15.00;12.33;;;;;;;;4895508;28;45613;-85
2021/11/14 04:31:25;;;;;;;;;7.00;6.67;;;;;;;;4894447;29;44884;-86
2021/11/14 04:33:53;;;;;;;;;11.67;11.67;;;;;;;;4893276;29;47688;-85
2021/11/14 04:36:19;;;;;;;;;9.67;9.33;;;;;;;;4894855;29;45294;-85
2021/11/14 04:38:44;;;;;;;;;8.33;8.33;;;;;;;;4912570;28;45335;-85
2021/11/14 04:41:09;;;;;;;;;11.33;9.00;;;;;;;;4895389;29;45283;-86
2021/11/14 04:43:35;;;;;;;;;9.67;9.67;;;;;;;;4912202;28;45726;-85
2021/11/14 04:46:00;;;;;;;;;10.67;10.00;;;;;;;;4911722;28;45437;-85
2021/11/14 04:48:25;;;;;;;;;7.33;7.33;;;;;;;;4912306;29;44776;-85
2021/11/14 04:50:51;;;;;;;;;7.33;7.33;;;;;;;;4895802;28;45331;-86
2021/11/14 04:53:17;;;;;;;;;9.00;9.00;;;;;;;;4897393;29;47696;-85
2021/11/14 04:55:43;;;;;;;;;8.67;8.67;;;;;;;;4896895;28;45371;-85
2021/11/14 04:58:09;;;;;;;;;9.00;9.00;;;;;;;;4914173;28;45369;-85
2021/11/14 05:00:54;;;;;;;;;15.33;12.33;;;;;;;;4913377;28;45369;-86
2021/11/14 05:03:20;;;;;;;;;9.00;8.33;;;;;;;;4895665;29;48043;-86
2021/11/14 05:05:45;;;;;;;;;10.67;8.67;;;;;;;;4895101;29;45532;-85
2021/11/14 05:08:11;;;;;;;;;10.00;10.00;;;;;;;;4896863;29;45477;-85
2021/11/14 05:10:37;;;;;;;;;8.67;8.00;;;;;;;;4895698;29;45501;-85
2021/11/14 05:13:02;;;;;;;;;10.00;8.00;;;;;;;;4914150;28;45534;-85
2021/11/14 05:15:28;;;;;;;;;8.67;7.67;;;;;;;;4897168;29;46150;-86
2021/11/14 05:17:53;;;;;;;;;13.00;13.00;;;;;;;;4897472;29;45380;-85
2021/11/14 05:20:18;;;;;;;;;10.67;9.00;;;;;;;;4914163;28;45436;-85
2021/11/14 05:22:44;;;;;;;;;9.00;9.00;;;;;;;;4913185;29;46547;-85
2021/11/14 05:25:10;;;;;;;;;11.67;9.00;;;;;;;;4915349;29;45285;-85
2021/11/14 05:27:35;;;;;;;;;8.00;8.00;;;;;;;;4897032;29;45421;-86
2021/11/14 05:30:01;;;;;;;;;8.33;8.33;;;;;;;;4896345;29;44900;-85
2021/11/14 05:32:26;;;;;;;;;10.67;9.33;;;;;;;;4897118;28;46952;-85
2021/11/14 05:34:51;;;;;;;;;10.33;9.00;;;;;;;;4896966;29;45414;-86
2021/11/14 05:37:17;;;;;;;;;14.67;12.00;;;;;;;;4895465;29;46499;-85
2021/11/14 05:39:42;;;;;;;;;8.67;8.67;;;;;;;;4896695;28;45617;-85
2021/11/14 05:42:07;;;;;;;;;9.00;8.00;;;;;;;;4896260;29;46808;-85
2021/11/14 05:44:33;;;;;;;;;10.33;10.33;;;;;;;;4894265;29;45465;-85
2021/11/14 05:46:58;;;;;;;;;9.00;7.00;;;;;;;;4893784;29;45585;-85
2021/11/14 05:49:23;;;;;;;;;10.00;8.67;;;;;;;;4911365;29;44856;-86
2021/11/14 05:51:48;;;;;;;;;7.33;7.33;;;;;;;;4893605;29;47241;-85
2021/11/14 05:54:24;;;;;;;;;12.33;11.00;;;;;;;;4909977;28;45367;-85
2021/11/14 05:56:49;;;;;;;;;7.67;7.00;;;;;;;;4910759;29;44871;-84
2021/11/14 06:02:05;;;;;;;;;9.00;9.00;;;;;;;;4911678;28;45451;-84
2021/11/14 06:04:54;;;;;;;;;10.50;10.50;;;;;;;;4893541;29;45418;-85
2021/11/14 06:07:29;;;;;;;;;11.00;11.00;;;;;;;;4893672;29;45489;-85
2021/11/14 06:09:57;;;;;;;;;11.33;10.00;;;;;;;;4894167;29;45458;-85
2021/11/14 06:12:28;;;;;;;;;9.33;9.33;;;;;;;;4912360;28;45433;-84
2021/11/14 06:14:53;;;;;;;;;9.00;9.00;;;;;;;;4896369;29;45912;-84
2021/11/14 06:17:20;;;;;;;;;9.33;9.00;;;;;;;;4895713;29;45573;-85
2021/11/14 06:19:46;;;;;;;;;12.00;10.33;;;;;;;;4912698;29;45302;-85
2021/11/14 06:22:11;;;;;;;;;10.67;8.67;;;;;;;;4895570;29;47562;-85
2021/11/14 06:24:36;;;;;;;;;10.33;9.00;;;;;;;;4912171;28;45490;-84
2021/11/14 06:27:02;;;;;;;;;8.67;8.67;;;;;;;;4895024;29;45596;-85
2021/11/14 06:29:27;;;;;;;;;7.33;7.33;;;;;;;;4894665;29;45408;-84
2021/11/14 06:31:52;;;;;;;;;11.33;9.00;;;;;;;;4894665;29;46664;-85
2021/11/14 06:34:17;;;;;;;;;8.67;8.00;;;;;;;;4912061;28;45720;-84
2021/11/14 06:36:43;;;;;;;;;4.67;4.33;;;;;;;;4896569;29;45305;-85
2021/11/14 06:39:08;;;;;;;;;10.67;10.67;;;;;;;;4912778;28;45366;-84
2021/11/14 06:41:33;;;;;;;;;9.67;8.33;;;;;;;;4894295;29;47024;-84
2021/11/14 06:43:59;;;;;;;;;9.33;9.33;;;;;;;;4896498;28;45356;-84
2021/11/14 06:46:24;;;;;;;;;12.67;10.67;;;;;;;;4893370;29;45290;-85
2021/11/14 06:48:49;;;;;;;;;9.00;7.33;;;;;;;;4893334;28;45347;-84
2021/11/14 06:51:15;;;;;;;;;8.33;7.33;;;;;;;;4894025;29;46988;-84
2021/11/14 06:53:41;;;;;;;;;4.00;4.00;;;;;;;;4894853;28;45355;-85
2021/11/14 06:56:06;;;;;;;;;11.00;9.00;;;;;;;;4907569;28;45594;-85
2021/11/14 06:58:31;;;;;;;;;11.67;9.00;;;;;;;;4914594;28;45526;-84
2021/11/14 07:00:56;;;;;;;;;8.33;8.00;;;;;;;;4930875;28;45426;-85
2021/11/14 07:03:22;;;;;;;;;10.00;6.67;;;;;;;;4929432;28;45456;-85
2021/11/14 07:05:47;;;;;;;;;11.67;9.67;;;;;;;;4913314;28;45868;-85
2021/11/14 07:08:14;;;;;;;;;9.00;9.00;;;;;;;;4929310;28;45745;-85
2021/11/14 07:10:40;;;;;;;;;8.00;8.00;;;;;;;;4928281;28;45480;-85
2021/11/14 07:13:05;;;;;;;;;12.00;10.33;;;;;;;;4928422;28;45420;-85
2021/11/14 07:15:30;;;;;;;;;16.00;15.00;;;;;;;;4911035;28;44817;-85
2021/11/14 07:17:59;;;;;;;;;9.00;8.00;;;;;;;;4928633;28;45708;-85
2021/11/14 07:20:24;;;;;;;;;8.67;7.67;;;;;;;;4911993;28;48329;-85
2021/11/14 07:22:49;;;;;;;;;10.00;8.00;;;;;;;;4930137;28;45379;-84
2021/11/14 07:25:17;;;;;;;;;8.00;8.00;;;;;;;;4930071;28;45458;-86
2021/11/14 07:27:43;;;;;;;;;8.00;7.67;;;;;;;;4912093;28;45450;-86
2021/11/14 07:30:13;;;;;;;;;12.67;12.67;;;;;;;;4928619;28;47349;-86
2021/11/14 07:32:42;;;;;;;;;9.00;9.00;;;;;;;;4911550;28;45799;-86
2021/11/14 07:35:08;;;;;;;;;12.67;11.33;;;;;;;;4929481;28;45358;-86
2021/11/14 07:37:34;;;;;;;;;9.67;9.00;;;;;;;;4913568;28;44905;-86
2021/11/14 07:39:59;;;;;;;;;12.00;12.00;;;;;;;;4912463;28;46881;-84
2021/11/14 07:42:24;;;;;;;;;9.00;9.00;;;;;;;;4912840;28;45526;-84
2021/11/14 07:44:50;;;;;;;;;10.67;9.00;;;;;;;;4912108;28;45523;-86
2021/11/14 07:47:15;;;;;;;;;11.00;11.00;;;;;;;;4929232;28;45429;-85
2021/11/14 07:49:43;;;;;;;;;11.00;10.33;;;;;;;;4930350;28;45059;-86
2021/11/14 07:52:08;;;;;;;;;11.00;10.67;;;;;;;;4912866;28;45449;-85
2021/11/14 07:54:33;;;;;;;;;10.00;8.00;;;;;;;;4911376;28;45496;-85
2021/11/14 07:57:02;;;;;;;;;11.33;11.33;;;;;;;;4912547;28;45320;-86
2021/11/14 07:59:29;;;;;;;;;10.33;10.33;;;;;;;;4911843;28;47471;-86
2021/11/14 08:01:54;;;;;;;;;9.00;9.00;;;;;;;;4913190;28;45836;-85
2021/11/14 08:04:19;;;;;;;;;8.00;6.00;;;;;;;;4911784;28;45512;-85
2021/11/14 08:06:44;;;;;;;;;10.67;10.33;;;;;;;;4913953;29;45466;-85
2021/11/14 08:09:10;;;;;;;;;10.00;8.67;;;;;;;;4914613;28;46881;-84
2021/11/14 08:11:35;;;;;;;;;12.00;10.00;;;;;;;;4895420;29;45528;-84
2021/11/14 08:14:00;;;;;;;;;9.33;9.33;;;;;;;;4912334;29;45323;-84
2021/11/14 08:16:26;;;;;;;;;11.33;10.67;;;;;;;;4895166;29;44851;-85
2021/11/14 08:18:51;;;;;;;;;14.00;9.33;;;;;;;;4896791;29;48443;-85
2021/11/14 08:21:16;;;;;;;;;9.67;8.33;;;;;;;;4913322;29;45875;-84
2021/11/14 08:23:42;;;;;;;;;13.33;8.33;;;;;;;;4911797;28;45497;-85
2021/11/14 08:26:09;;;;;;;;;11.00;7.33;;;;;;;;4914066;29;45338;-85
2021/11/14 08:28:35;;;;;;;;;11.33;9.33;;;;;;;;4913575;28;45430;-85
2021/11/14 08:31:01;;;;;;;;;9.00;9.00;;;;;;;;4897735;29;45283;-85
2021/11/14 08:33:27;;;;;;;;;8.33;8.33;;;;;;;;4896765;29;44773;-85
2021/11/14 08:35:52;;;;;;;;;10.00;9.33;;;;;;;;4897946;29;45368;-85
2021/11/14 08:38:17;;;;;;;;;10.00;8.33;;;;;;;;4915476;28;45976;-86
2021/11/14 08:40:43;;;;;;;;;12.00;12.00;;;;;;;;4893985;29;45488;-85
2021/11/14 08:43:09;;;;;;;;;10.00;10.00;;;;;;;;4878155;28;45566;-85
2021/11/14 08:45:34;;;;;;;;;13.67;9.33;;;;;;;;4877439;29;44910;-85
2021/11/14 08:48:00;;;;;;;;;10.33;10.33;;;;;;;;4876669;29;45458;-85
2021/11/14 08:50:26;;;;;;;;;11.00;11.00;;;;;;;;4894431;29;45395;-85
2021/11/14 08:55:55;;;;;;;;;17.33;11.67;;;;;;;;4894707;29;45808;-85
2021/11/14 08:58:21;;;;;;;;;10.00;10.00;;;;;;;;4894427;29;45086;-85
2021/11/14 09:00:47;;;;;;;;;13.00;13.00;;;;;;;;4879986;29;45459;-85
2021/11/14 09:03:12;;;;;;;;;9.67;9.67;;;;;;;;4893742;28;45339;-86
2021/11/14 09:05:37;;;;;;;;;8.00;8.00;;;;;;;;4888216;29;45533;-85
2021/11/14 09:08:05;;;;;;;;;8.00;8.00;;;;;;;;4911708;29;45311;-85
2021/11/14 09:10:30;;;;;;;;;9.67;8.67;;;;;;;;4910826;29;45186;-86
2021/11/14 09:12:56;;;;;;;;;10.00;9.00;;;;;;;;4911085;28;45159;-85
2021/11/14 09:15:23;;;;;;;;;6.00;6.00;;;;;;;;4913165;29;45385;-85
2021/11/14 09:17:48;;;;;;;;;15.67;9.00;;;;;;;;4912991;28;45581;-85
2021/11/14 09:20:16;;;;;;;;;8.33;8.33;;;;;;;;4911915;29;45589;-86
2021/11/14 09:22:42;;;;;;;;;6.67;6.67;;;;;;;;4912039;28;45331;-85
2021/11/14 09:25:16;;;;;;;;;10.00;10.00;;;;;;;;4914566;28;45454;-85
2021/11/14 09:28:03;;;;;;;;;8.33;6.67;;;;;;;;4912619;28;45521;-85
2021/11/14 09:30:29;;;;;;;;;5.67;5.67;;;;;;;;4912953;28;45378;-85
2021/11/14 09:32:54;;;;;;;;;2.00;1.00;;;;;;;;4896794;29;44833;-84
2021/11/14 09:35:19;;;;;;;;;6.00;4.33;;;;;;;;4897167;29;45544;-84
2021/11/14 09:37:44;;;;;;;;;3.00;1.00;;;;;;;;4896230;29;48078;-85
2021/11/14 09:40:10;;;;;;;;;4.00;4.00;;;;;;;;4912629;28;44757;-85
2021/11/14 09:42:36;;;;;;;;;5.67;5.00;;;;;;;;4911993;29;45420;-86
2021/11/14 09:45:02;;;;;;;;;5.00;5.00;;;;;;;;4911923;28;45441;-86
2021/11/14 09:47:28;;;;;;;;;4.00;3.00;;;;;;;;4895420;29;47004;-85
2021/11/14 09:49:58;;;;;;;;;5.00;5.00;;;;;;;;4896245;29;45431;-85
2021/11/14 09:52:24;;;;;;;;;6.00;6.00;;;;;;;;4911562;28;45351;-85
2021/11/14 09:54:49;;;;;;;;;5.00;5.00;;;;;;;;4895218;28;45355;-85
2021/11/14 09:57:14;;;;;;;;;4.00;4.00;;;;;;;;4894158;29;46837;-86
2021/11/14 09:59:41;;;;;;;;;5.00;5.00;;;;;;;;4910543;29;45328;-85
2021/11/14 10:02:07;;;;;;;;;6.00;6.00;;;;;;;;4911051;29;45329;-85
2021/11/14 10:04:33;;;;;;;;;6.67;6.00;;;;;;;;4893497;29;45834;-85
2021/11/14 10:07:02;;;;;;;;;6.00;4.67;;;;;;;;4891882;28;45498;-85
2021/11/14 10:09:34;;;;;;;;;6.33;5.33;;;;;;;;4875441;29;45467;-85
2021/11/14 10:12:17;;;;;;;;;6.67;5.00;;;;;;;;4875716;29;45550;-85
2021/11/14 10:14:47;;;;;;;;;7.67;7.67;;;;;;;;4875714;29;44796;-85
2021/11/14 10:17:14;;;;;;;;;6.67;5.67;;;;;;;;4875074;29;48029;-85
2021/11/14 10:22:48;;;;;;;;;6.00;6.00;;;;;;;;4890642;28;45399;-85
2021/11/14 10:25:14;;;;;;;;;6.00;6.00;;;;;;;;4874993;29;45954;-85
2021/11/14 10:27:39;;;;;;;;;6.00;5.00;;;;;;;;4874788;29;48193;-85
2021/11/14 10:30:07;;;;;;;;;10.33;9.33;;;;;;;;4874758;29;45454;-85
2021/11/14 10:32:33;;;;;;;;;5.33;5.33;;;;;;;;4890733;29;44899;-85
2021/11/14 10:34:59;;;;;;;;;11.00;10.00;;;;;;;;4890525;29;45375;-85
2021/11/14 10:37:26;;;;;;;;;10.00;9.00;;;;;;;;4874048;29;47573;-85
2021/11/14 10:39:54;;;;;;;;;7.00;7.00;;;;;;;;4874458;29;45431;-85
2021/11/14 10:42:19;;;;;;;;;10.67;9.00;;;;;;;;4874792;29;44771;-85
2021/11/14 10:44:47;;;;;;;;;10.00;9.67;;;;;;;;4873966;29;45503;-85
2021/11/14 10:47:13;;;;;;;;;9.67;7.67;;;;;;;;4892119;29;46332;-85
2021/11/14 10:49:49;;;;;;;;;13.67;10.67;;;;;;;;4874698;28;45346;-85
2021/11/14 10:55:19;;;;;;;;;13.00;12.67;;;;;;;;4891881;29;45409;-85
2021/11/14 10:57:44;;;;;;;;;11.00;9.33;;;;;;;;4875032;28;47329;-85
2021/11/14 11:00:11;;;;;;;;;5.33;5.33;;;;;;;;4876840;29;45653;-85
2021/11/14 11:02:42;;;;;;;;;11.00;8.00;;;;;;;;4889761;29;45789;-85
2021/11/14 11:05:09;;;;;;;;;9.67;9.00;;;;;;;;4912838;28;45332;-85
2021/11/14 11:07:34;;;;;;;;;12.33;10.67;;;;;;;;4893437;29;47050;-85
2021/11/14 11:09:59;;;;;;;;;12.67;10.33;;;;;;;;4895842;29;45423;-85
2021/11/14 11:12:26;;;;;;;;;10.67;6.00;;;;;;;;4896907;28;45406;-85
2021/11/14 11:17:54;;;;;;;;;12.00;11.67;;;;;;;;4910563;29;45813;-85
2021/11/14 11:20:23;;;;;;;;;10.67;10.67;;;;;;;;4896226;29;45390;-84
2021/11/14 11:22:50;;;;;;;;;9.33;9.00;;;;;;;;4911758;29;45366;-85
2021/11/14 11:25:27;;;;;;;;;11.00;10.67;;;;;;;;4912069;28;45517;-85
2021/11/14 11:27:53;;;;;;;;;10.33;9.33;;;;;;;;4910538;28;45584;-85
2021/11/14 11:30:33;;;;;;;;;12.00;11.67;;;;;;;;4894296;28;45444;-86
2021/11/14 11:32:58;;;;;;;;;15.33;13.00;;;;;;;;4911871;28;45502;-85
2021/11/14 11:35:24;;;;;;;;;11.00;11.00;;;;;;;;4894403;29;45422;-85
2021/11/14 11:37:49;;;;;;;;;13.00;10.33;;;;;;;;4914271;29;45536;-84
2021/11/14 11:40:15;;;;;;;;;13.00;10.00;;;;;;;;4897752;29;45361;-85
2021/11/14 11:42:41;;;;;;;;;10.67;10.67;;;;;;;;4897723;29;45493;-85
2021/11/14 11:45:08;;;;;;;;;13.00;10.00;;;;;;;;4898613;29;45005;-85
2021/11/14 11:47:35;;;;;;;;;14.00;12.67;;;;;;;;4898206;29;47189;-85
2021/11/14 11:50:01;;;;;;;;;15.00;14.33;;;;;;;;4899189;29;45709;-85
2021/11/14 11:52:38;;;;;;;;;17.67;13.00;;;;;;;;4899148;29;45481;-85
2021/11/14 11:55:15;;;;;;;;;9.00;9.00;;;;;;;;4917229;29;45427;-85
2021/11/14 11:57:40;;;;;;;;;15.00;13.33;;;;;;;;4898514;29;48327;-85
2021/11/14 12:00:12;;;;;;;;;11.00;11.00;;;;;;;;4897388;29;45731;-85
2021/11/14 12:02:38;;;;;;;;;14.00;10.67;;;;;;;;4896754;29;44770;-85
2021/11/14 12:05:20;;;;;;;;;20.00;14.00;;;;;;;;4917257;28;45342;-85
2021/11/14 12:07:50;;;;;;;;;11.67;11.00;;;;;;;;4897683;29;47237;-85
2021/11/14 12:10:19;;;;;;;;;14.67;12.67;;;;;;;;4898726;29;45459;-85
2021/11/14 12:12:46;;;;;;;;;12.00;11.00;;;;;;;;4897104;29;45803;-85
2021/11/14 12:15:16;;;;;;;;;11.00;9.00;;;;;;;;4897649;29;45230;-85
2021/11/14 12:17:47;;;;;;;;;17.67;15.33;;;;;;;;4896447;29;47325;-85
2021/11/14 12:20:14;;;;;;;;;12.00;11.33;;;;;;;;4897024;29;45391;-85
2021/11/14 12:22:42;;;;;;;;;19.67;15.00;;;;;;;;4913707;29;45555;-85
2021/11/14 12:25:07;;;;;;;;;11.33;11.33;;;;;;;;4915802;29;45523;-85
2021/11/14 12:27:34;;;;;;;;;12.00;12.00;;;;;;;;4897189;29;47963;-85
2021/11/14 12:30:09;;;;;;;;;16.00;12.00;;;;;;;;4914085;28;45290;-85
2021/11/14 12:32:44;;;;;;;;;13.67;13.00;;;;;;;;4913748;28;45431;-85
2021/11/14 12:35:24;;;;;;;;;16.33;13.67;;;;;;;;4896637;29;45275;-85
2021/11/14 12:37:52;;;;;;;;;17.33;15.00;;;;;;;;4903484;29;45569;-85
2021/11/14 12:40:22;;;;;;;;;17.33;13.00;;;;;;;;4876484;28;45340;-85
2021/11/14 12:42:50;;;;;;;;;12.00;12.00;;;;;;;;4876244;29;45366;-85
2021/11/14 12:45:16;;;;;;;;;13.00;11.00;;;;;;;;4876244;29;45660;-85
2021/11/14 12:47:43;;;;;;;;;12.33;12.33;;;;;;;;4892975;29;45525;-85
2021/11/14 12:50:12;;;;;;;;;13.67;12.00;;;;;;;;4875544;29;45405;-84
2021/11/14 12:52:38;;;;;;;;;19.67;14.67;;;;;;;;4892510;29;45434;-84
2021/11/14 12:55:14;;;;;;;;;18.00;15.00;;;;;;;;4876421;28;45488;-85
2021/11/14 12:58:00;;;;;;;;;20.00;17.33;;;;;;;;4877127;29;47199;-85
2021/11/14 13:00:34;;;;;;;;;15.00;15.00;;;;;;;;4876966;28;45466;-85
2021/11/14 13:02:59;;;;;;;;;14.67;13.67;;;;;;;;4895904;29;45459;-85
2021/11/14 13:05:26;;;;;;;;;10.00;10.00;;;;;;;;4879959;28;45758;-85
2021/11/14 13:07:56;;;;;;;;;22.67;13.67;;;;;;;;4912020;29;45477;-84
2021/11/14 13:10:22;;;;;;;;;16.67;16.00;;;;;;;;4912557;28;45759;-84
2021/11/14 13:12:48;;;;;;;;;15.67;13.33;;;;;;;;4896169;28;45338;-85
2021/11/14 13:15:15;;;;;;;;;21.33;17.00;;;;;;;;4912733;28;44841;-84
2021/11/14 13:17:45;;;;;;;;;20.67;17.00;;;;;;;;4896111;29;47055;-84
2021/11/14 13:20:16;;;;;;;;;14.67;13.67;;;;;;;;4913522;28;44801;-84
2021/11/14 13:22:54;;;;;;;;;16.33;14.00;;;;;;;;4897563;29;45391;-84
2021/11/14 13:25:29;;;;;;;;;16.00;12.00;;;;;;;;4898842;28;44907;-85
2021/11/14 13:27:58;;;;;;;;;13.00;13.00;;;;;;;;4896924;28;45335;-85
2021/11/14 13:30:24;;;;;;;;;15.67;14.33;;;;;;;;4896515;28;45430;-85
2021/11/14 13:32:53;;;;;;;;;14.33;13.67;;;;;;;;4896149;28;45527;-84
2021/11/14 13:35:19;;;;;;;;;15.33;12.33;;;;;;;;4912725;28;45326;-84
2021/11/14 13:37:44;;;;;;;;;14.33;12.33;;;;;;;;4911127;29;45281;-84
2021/11/14 13:40:12;;;;;;;;;16.67;13.00;;;;;;;;4895502;29;45543;-85
2021/11/14 13:42:38;;;;;;;;;17.67;14.33;;;;;;;;4896080;28;45432;-84
2021/11/14 13:48:12;;;;;;;;;20.67;17.33;;;;;;;;4912307;28;45398;-85
2021/11/14 13:50:37;;;;;;;;;19.67;16.67;;;;;;;;4895137;29;44889;-84
2021/11/14 13:53:03;;;;;;;;;16.67;15.33;;;;;;;;4897155;28;45780;-85
2021/11/14 13:55:29;;;;;;;;;13.00;13.00;;;;;;;;4896308;28;44905;-85
2021/11/14 13:57:54;;;;;;;;;15.00;12.67;;;;;;;;4893902;29;47191;-86
2021/11/14 14:00:23;;;;;;;;;19.00;16.67;;;;;;;;4893513;29;45584;-86
2021/11/14 14:02:48;;;;;;;;;17.67;17.67;;;;;;;;4911369;29;45405;-86
2021/11/14 14:05:14;;;;;;;;;14.33;13.00;;;;;;;;4910459;28;45489;-86
2021/11/14 14:07:41;;;;;;;;;18.67;15.33;;;;;;;;4894861;29;46757;-86
2021/11/14 14:10:08;;;;;;;;;15.67;14.33;;;;;;;;4909785;29;45199;-85
2021/11/14 14:12:38;;;;;;;;;17.67;15.00;;;;;;;;4909257;29;45403;-86
2021/11/14 14:15:05;;;;;;;;;18.00;16.33;;;;;;;;4908522;29;45294;-85
2021/11/14 14:17:30;;;;;;;;;17.67;14.67;;;;;;;;4891847;29;47408;-86
2021/11/14 14:19:56;;;;;;;;;18.67;15.33;;;;;;;;4908915;29;45438;-86
2021/11/14 14:22:41;;;;;;;;;15.00;13.00;;;;;;;;4891185;29;45469;-86
2021/11/14 14:25:08;;;;;;;;;19.33;15.33;;;;;;;;4891078;29;45825;-86
2021/11/14 14:27:33;;;;;;;;;16.33;15.67;;;;;;;;4892165;29;47112;-85
2021/11/14 14:30:08;;;;;;;;;18.33;15.00;;;;;;;;4912024;29;44746;-85
2021/11/14 14:32:33;;;;;;;;;14.33;12.67;;;;;;;;4895226;28;45382;-85
2021/11/14 14:35:06;;;;;;;;;14.33;14.33;;;;;;;;4897220;29;45379;-85
2021/11/14 14:37:45;;;;;;;;;13.00;11.33;;;;;;;;4895726;29;48207;-85
2021/11/14 14:40:13;;;;;;;;;17.00;15.00;;;;;;;;4894685;28;44754;-85
2021/11/14 14:42:48;;;;;;;;;16.00;15.00;;;;;;;;4894472;29;45412;-86
2021/11/14 14:45:18;;;;;;;;;19.33;19.33;;;;;;;;4895565;28;45874;-86
2021/11/14 14:47:54;;;;;;;;;16.33;16.33;;;;;;;;4896053;28;47384;-86
2021/11/14 14:50:20;;;;;;;;;22.00;19.00;;;;;;;;4913523;28;45270;-86
2021/11/14 14:52:45;;;;;;;;;22.00;19.33;;;;;;;;4912409;29;45222;-85